Time;durP1;ratioP1;P1;durP2;ratioP2;P2;SDS_P1;SDS_P2;PMS_P1;PMS_P2;Temp;Humidity;BMP_temperature;BMP_pressure;BME280_temperature;BME280_humidity;BME280_pressure;Samples;Min_cycle;Max_cycle;Signal;HPM_P1;HPM_P2
2022/01/13 00:02:26;;;;;;;8.27;4.00;;;;;;;;;;4988751;28;20212;-62
2022/01/13 00:04:53;;;;;;;4.27;3.00;;;;;;;;;;4988738;28;20256;-63
2022/01/13 00:07:21;;;;;;;5.67;3.17;;;;;;;;;;4989270;28;20935;-62
2022/01/13 00:09:48;;;;;;;4.40;3.10;;;;;;;;;;4989164;28;20261;-62
2022/01/13 00:12:18;;;;;;;4.90;3.10;;;;;;;;;;4986571;28;20237;-62
2022/01/13 00:15:08;;;;;;;4.97;3.50;;;;;;;;;;4988944;28;20622;-62
2022/01/13 00:17:57;;;;;;;5.53;3.17;;;;;;;;;;4987588;28;20342;-62
2022/01/13 00:20:35;;;;;;;3.63;2.67;;;;;;;;;;4985796;28;20228;-62
2022/01/13 00:25:53;;;;;;;2.70;2.17;;;;;;;;;;4988797;28;20208;-61
2022/01/13 00:28:21;;;;;;;5.10;2.70;;;;;;;;;;4988701;28;20877;-62
2022/01/13 00:30:51;;;;;;;4.13;2.87;;;;;;;;;;4988326;28;20214;-62
2022/01/13 00:33:23;;;;;;;3.77;2.40;;;;;;;;;;4988850;28;20221;-61
2022/01/13 00:35:50;;;;;;;7.10;2.97;;;;;;;;;;4988392;28;20490;-61
2022/01/13 00:38:19;;;;;;;2.53;2.23;;;;;;;;;;4988596;28;20210;-62
2022/01/13 00:40:46;;;;;;;3.77;2.93;;;;;;;;;;4989161;28;20304;-61
2022/01/13 00:43:13;;;;;;;3.90;2.67;;;;;;;;;;4989530;28;20261;-62
2022/01/13 00:45:40;;;;;;;5.07;2.90;;;;;;;;;;4988966;28;20206;-62
2022/01/13 00:48:07;;;;;;;5.10;2.70;;;;;;;;;;4989224;28;20256;-62
2022/01/13 00:50:34;;;;;;;3.50;2.73;;;;;;;;;;4988855;28;20250;-62
2022/01/13 00:53:01;;;;;;;4.60;3.17;;;;;;;;;;4989438;28;20300;-61
2022/01/13 00:55:44;;;;;;;3.00;2.63;;;;;;;;;;4986781;28;20587;-62
2022/01/13 00:58:11;;;;;;;5.20;2.87;;;;;;;;;;4987650;28;20261;-62
2022/01/13 01:00:38;;;;;;;4.63;3.70;;;;;;;;;;4988697;28;20207;-62
2022/01/13 01:03:07;;;;;;;5.33;3.20;;;;;;;;;;4989301;28;20202;-62
2022/01/13 01:05:34;;;;;;;2.53;2.13;;;;;;;;;;4988040;28;21511;-61
2022/01/13 01:08:01;;;;;;;5.13;2.90;;;;;;;;;;4988366;28;20202;-62
2022/01/13 01:10:30;;;;;;;6.07;2.87;;;;;;;;;;4988795;28;20210;-62
2022/01/13 01:12:57;;;;;;;6.73;2.50;;;;;;;;;;4992128;28;20672;-61
2022/01/13 01:15:24;;;;;;;3.77;2.47;;;;;;;;;;4992405;28;20300;-62
2022/01/13 01:17:59;;;;;;;3.03;2.43;;;;;;;;;;4991812;28;20229;-62
2022/01/13 01:20:30;;;;;;;5.63;2.80;;;;;;;;;;4987320;28;20981;-62
2022/01/13 01:23:12;;;;;;;4.37;2.83;;;;;;;;;;4990152;28;20206;-62
2022/01/13 01:25:47;;;;;;;5.13;3.00;;;;;;;;;;4992952;28;20680;-62
2022/01/13 01:28:21;;;;;;;3.83;2.67;;;;;;;;;;4993793;28;20245;-62
2022/01/13 01:30:53;;;;;;;3.03;2.37;;;;;;;;;;4993007;28;20209;-62
2022/01/13 01:33:20;;;;;;;5.70;2.57;;;;;;;;;;4993669;28;20237;-62
2022/01/13 01:35:48;;;;;;;5.40;3.17;;;;;;;;;;4993215;28;20212;-61
2022/01/13 01:38:15;;;;;;;3.90;2.73;;;;;;;;;;4993043;28;20203;-62
2022/01/13 01:40:43;;;;;;;4.53;2.83;;;;;;;;;;4993391;28;20424;-62
2022/01/13 01:43:11;;;;;;;6.30;3.00;;;;;;;;;;4993519;28;20386;-61
2022/01/13 01:45:43;;;;;;;3.63;2.53;;;;;;;;;;4993326;28;20269;-61
2022/01/13 01:48:11;;;;;;;3.37;3.03;;;;;;;;;;4992874;28;20214;-62
2022/01/13 01:50:38;;;;;;;14.27;4.07;;;;;;;;;;4992912;28;20243;-61
2022/01/13 01:53:07;;;;;;;9.30;3.73;;;;;;;;;;4993060;28;20330;-62
2022/01/13 01:55:34;;;;;;;6.13;3.83;;;;;;;;;;4992891;28;20301;-61
2022/01/13 01:58:02;;;;;;;4.27;2.97;;;;;;;;;;4992652;28;20200;-62
2022/01/13 02:00:29;;;;;;;4.67;3.13;;;;;;;;;;4993182;28;20210;-61
2022/01/13 02:02:56;;;;;;;12.80;2.90;;;;;;;;;;4992742;28;20658;-61
2022/01/13 02:05:24;;;;;;;5.57;2.80;;;;;;;;;;4992490;28;20214;-61
2022/01/13 02:07:51;;;;;;;7.77;3.33;;;;;;;;;;4991698;28;20215;-62
2022/01/13 02:10:18;;;;;;;3.83;3.23;;;;;;;;;;4991960;28;20211;-61
2022/01/13 02:12:49;;;;;;;4.90;3.07;;;;;;;;;;4992077;28;20574;-61
2022/01/13 02:15:32;;;;;;;5.07;3.10;;;;;;;;;;4992237;28;20213;-61
2022/01/13 02:18:01;;;;;;;6.27;3.60;;;;;;;;;;4991347;28;20222;-62
2022/01/13 02:20:43;;;;;;;5.03;3.60;;;;;;;;;;4991983;28;20230;-61
2022/01/13 02:23:10;;;;;;;5.90;2.77;;;;;;;;;;4990945;28;20203;-61
2022/01/13 02:25:37;;;;;;;15.43;6.10;;;;;;;;;;4991819;28;20210;-61
2022/01/13 02:28:04;;;;;;;9.13;5.37;;;;;;;;;;4991519;28;20218;-61
2022/01/13 02:30:31;;;;;;;7.23;4.27;;;;;;;;;;4991456;28;20207;-62
2022/01/13 02:32:58;;;;;;;7.20;3.63;;;;;;;;;;4991820;28;20305;-62
2022/01/13 02:35:27;;;;;;;13.17;3.50;;;;;;;;;;4991697;28;20214;-61
2022/01/13 02:37:55;;;;;;;9.87;2.73;;;;;;;;;;4992160;28;20212;-62
2022/01/13 02:40:22;;;;;;;6.43;3.50;;;;;;;;;;4992072;28;20629;-62
2022/01/13 02:42:49;;;;;;;5.23;3.70;;;;;;;;;;4992609;28;20213;-62
2022/01/13 02:45:20;;;;;;;5.10;3.67;;;;;;;;;;4991703;28;20213;-62
2022/01/13 02:48:13;;;;;;;7.00;4.20;;;;;;;;;;4991930;28;20211;-62
2022/01/13 02:50:41;;;;;;;7.27;3.93;;;;;;;;;;4991267;28;20322;-62
2022/01/13 02:53:10;;;;;;;6.70;4.27;;;;;;;;;;4992134;28;20317;-62
2022/01/13 02:55:37;;;;;;;7.47;4.10;;;;;;;;;;4992076;28;20583;-62
2022/01/13 02:58:04;;;;;;;7.13;4.23;;;;;;;;;;4991335;28;20205;-61
2022/01/13 03:00:31;;;;;;;7.73;4.80;;;;;;;;;;4991830;28;20268;-61
2022/01/13 03:02:59;;;;;;;8.73;4.60;;;;;;;;;;4991655;28;20203;-61
2022/01/13 03:05:26;;;;;;;9.07;4.57;;;;;;;;;;4992157;28;20219;-61
2022/01/13 03:07:53;;;;;;;6.73;3.50;;;;;;;;;;4991576;28;20570;-61
2022/01/13 03:10:22;;;;;;;5.57;4.33;;;;;;;;;;4991570;28;20645;-62
2022/01/13 03:12:49;;;;;;;10.30;4.13;;;;;;;;;;4991536;28;20240;-62
2022/01/13 03:15:16;;;;;;;7.10;3.97;;;;;;;;;;4991256;28;20306;-61
2022/01/13 03:17:43;;;;;;;6.50;3.63;;;;;;;;;;4991821;28;20273;-61
2022/01/13 03:20:11;;;;;;;6.23;4.77;;;;;;;;;;4990940;28;20213;-61
2022/01/13 03:22:38;;;;;;;8.57;3.47;;;;;;;;;;4991700;28;20588;-61
2022/01/13 03:25:05;;;;;;;7.37;4.17;;;;;;;;;;4991269;28;20205;-61
2022/01/13 03:27:35;;;;;;;4.80;2.60;;;;;;;;;;4991555;28;20582;-61
2022/01/13 03:30:05;;;;;;;6.50;3.47;;;;;;;;;;4991130;28;20664;-61
2022/01/13 03:32:32;;;;;;;4.70;2.70;;;;;;;;;;4991211;28;20251;-62
2022/01/13 03:34:59;;;;;;;5.17;3.93;;;;;;;;;;4990991;28;20339;-61
2022/01/13 03:37:27;;;;;;;11.17;3.50;;;;;;;;;;4991642;28;20215;-61
2022/01/13 03:39:54;;;;;;;7.13;4.73;;;;;;;;;;4991089;28;20255;-61
2022/01/13 03:42:21;;;;;;;4.10;3.20;;;;;;;;;;4991171;28;20642;-61
2022/01/13 03:45:11;;;;;;;6.37;3.40;;;;;;;;;;4991078;28;20785;-61
2022/01/13 03:47:40;;;;;;;8.37;3.93;;;;;;;;;;4989692;28;20218;-61
2022/01/13 03:50:07;;;;;;;9.00;4.10;;;;;;;;;;4990266;28;20699;-61
2022/01/13 03:52:52;;;;;;;4.93;3.57;;;;;;;;;;4990772;28;20229;-61
2022/01/13 03:55:47;;;;;;;6.00;3.80;;;;;;;;;;4991078;28;20353;-61
2022/01/13 03:58:42;;;;;;;4.60;3.57;;;;;;;;;;4991053;28;20212;-61
2022/01/13 04:01:27;;;;;;;6.00;3.80;;;;;;;;;;4990380;28;20670;-61
2022/01/13 04:03:55;;;;;;;6.40;3.47;;;;;;;;;;4969942;28;20666;-61
2022/01/13 04:06:38;;;;;;;8.17;4.13;;;;;;;;;;4990985;28;20222;-61
2022/01/13 04:09:07;;;;;;;4.43;3.00;;;;;;;;;;4990470;28;20334;-61
2022/01/13 04:11:35;;;;;;;6.60;3.30;;;;;;;;;;4990378;28;20213;-62
2022/01/13 04:14:05;;;;;;;6.23;3.03;;;;;;;;;;4990578;28;20232;-61
2022/01/13 04:16:33;;;;;;;11.47;4.30;;;;;;;;;;4990262;28;20228;-61
2022/01/13 04:19:04;;;;;;;9.07;4.67;;;;;;;;;;4990610;28;20821;-61
2022/01/13 04:21:32;;;;;;;6.03;3.93;;;;;;;;;;4990015;28;20200;-61
2022/01/13 04:24:11;;;;;;;5.60;3.73;;;;;;;;;;4990504;28;20215;-62
2022/01/13 04:26:41;;;;;;;4.07;3.50;;;;;;;;;;4990297;28;20717;-62
2022/01/13 04:29:19;;;;;;;4.30;3.80;;;;;;;;;;4990162;28;20213;-61
2022/01/13 04:31:47;;;;;;;10.37;4.40;;;;;;;;;;4990202;28;20221;-61
2022/01/13 04:34:16;;;;;;;7.33;4.27;;;;;;;;;;4990052;28;20283;-61
2022/01/13 04:36:43;;;;;;;4.87;3.53;;;;;;;;;;4990348;28;20220;-61
2022/01/13 04:39:11;;;;;;;11.60;3.83;;;;;;;;;;4989904;28;20666;-62
2022/01/13 04:41:40;;;;;;;8.53;4.97;;;;;;;;;;4989755;28;20707;-61
2022/01/13 04:44:08;;;;;;;9.03;5.00;;;;;;;;;;4990111;28;20203;-61
2022/01/13 04:46:35;;;;;;;5.70;3.90;;;;;;;;;;4989693;28;20626;-61
2022/01/13 04:49:02;;;;;;;14.27;5.67;;;;;;;;;;4989805;28;20209;-61
2022/01/13 04:51:31;;;;;;;6.97;4.07;;;;;;;;;;4989913;28;20248;-61
2022/01/13 04:53:58;;;;;;;8.90;4.67;;;;;;;;;;4989767;28;20620;-61
2022/01/13 04:56:30;;;;;;;5.77;3.43;;;;;;;;;;4989909;28;20218;-61
2022/01/13 04:58:58;;;;;;;7.73;4.53;;;;;;;;;;4990163;28;20299;-62
2022/01/13 05:01:25;;;;;;;5.10;3.77;;;;;;;;;;4991330;28;20278;-62
2022/01/13 05:03:52;;;;;;;10.37;4.80;;;;;;;;;;4986740;28;20247;-62
2022/01/13 05:06:19;;;;;;;10.30;5.17;;;;;;;;;;4990162;28;20216;-61
2022/01/13 05:08:47;;;;;;;7.93;4.63;;;;;;;;;;4989835;28;20585;-61
2022/01/13 05:11:15;;;;;;;10.50;5.03;;;;;;;;;;4989141;28;20224;-62
2022/01/13 05:13:42;;;;;;;5.87;4.27;;;;;;;;;;4989571;28;20227;-62
2022/01/13 05:16:20;;;;;;;10.27;5.00;;;;;;;;;;4997596;28;20208;-61
2022/01/13 05:18:52;;;;;;;7.37;3.57;;;;;;;;;;4990152;28;20266;-61
2022/01/13 05:21:23;;;;;;;6.83;4.53;;;;;;;;;;4988961;28;20214;-61
2022/01/13 05:23:52;;;;;;;6.87;4.80;;;;;;;;;;4989731;28;20234;-62
2022/01/13 05:26:20;;;;;;;11.20;4.87;;;;;;;;;;4989823;28;20753;-61
2022/01/13 05:28:47;;;;;;;11.73;4.87;;;;;;;;;;4989721;28;20291;-61
2022/01/13 05:31:14;;;;;;;6.93;4.37;;;;;;;;;;4990047;28;20216;-61
2022/01/13 05:33:41;;;;;;;7.17;4.23;;;;;;;;;;4989773;28;20659;-62
2022/01/13 05:36:08;;;;;;;10.23;4.27;;;;;;;;;;4990130;28;20212;-61
2022/01/13 05:38:37;;;;;;;8.50;4.43;;;;;;;;;;4989537;28;20218;-61
2022/01/13 05:41:05;;;;;;;9.17;4.70;;;;;;;;;;4989497;28;20452;-61
2022/01/13 05:43:32;;;;;;;5.97;4.40;;;;;;;;;;4989616;28;20210;-61
2022/01/13 05:45:59;;;;;;;8.57;4.50;;;;;;;;;;4989611;28;20626;-61
2022/01/13 05:48:26;;;;;;;7.37;5.03;;;;;;;;;;4988926;28;20266;-61
2022/01/13 05:50:53;;;;;;;7.30;3.63;;;;;;;;;;4989748;28;20248;-61
2022/01/13 05:53:20;;;;;;;6.67;3.83;;;;;;;;;;4989176;28;20233;-61
2022/01/13 05:55:48;;;;;;;9.20;5.03;;;;;;;;;;4989655;28;20203;-62
2022/01/13 05:58:16;;;;;;;14.33;5.00;;;;;;;;;;4991495;28;20621;-61
2022/01/13 06:00:43;;;;;;;7.30;4.40;;;;;;;;;;4993119;28;20216;-61
2022/01/13 06:03:11;;;;;;;7.63;4.07;;;;;;;;;;4990775;28;20579;-61
2022/01/13 06:05:38;;;;;;;13.00;5.30;;;;;;;;;;4992039;28;20599;-61
2022/01/13 06:08:05;;;;;;;7.77;4.17;;;;;;;;;;4992126;28;20238;-61
2022/01/13 06:10:32;;;;;;;7.87;4.17;;;;;;;;;;4991534;28;20899;-61
2022/01/13 06:13:00;;;;;;;9.90;5.67;;;;;;;;;;4991314;28;20213;-62
2022/01/13 06:15:28;;;;;;;8.70;4.67;;;;;;;;;;4991108;28;20208;-61
2022/01/13 06:17:55;;;;;;;7.23;4.17;;;;;;;;;;4991111;28;20586;-62
2022/01/13 06:20:23;;;;;;;7.50;4.47;;;;;;;;;;4993427;28;20558;-61
2022/01/13 06:22:51;;;;;;;11.13;4.70;;;;;;;;;;4990237;28;20291;-61
2022/01/13 06:25:19;;;;;;;12.23;5.07;;;;;;;;;;4990990;28;20201;-61
2022/01/13 06:27:46;;;;;;;15.40;5.03;;;;;;;;;;4986589;28;20213;-61
2022/01/13 06:30:17;;;;;;;9.43;5.10;;;;;;;;;;4987855;28;20208;-61
2022/01/13 06:32:46;;;;;;;10.20;4.93;;;;;;;;;;4991923;28;21891;-62
2022/01/13 06:35:14;;;;;;;7.93;5.10;;;;;;;;;;4988522;28;20232;-61
2022/01/13 06:37:41;;;;;;;9.47;5.73;;;;;;;;;;4991641;28;20279;-62
2022/01/13 06:40:10;;;;;;;8.40;4.90;;;;;;;;;;4991436;28;20304;-61
2022/01/13 06:42:37;;;;;;;8.87;5.10;;;;;;;;;;4975009;28;20213;-61
2022/01/13 06:45:04;;;;;;;8.30;4.70;;;;;;;;;;4990829;28;20200;-61
2022/01/13 06:47:32;;;;;;;11.00;5.03;;;;;;;;;;4991372;28;20216;-62
2022/01/13 06:50:00;;;;;;;7.80;4.70;;;;;;;;;;4991254;28;20241;-62
2022/01/13 06:52:27;;;;;;;8.67;4.33;;;;;;;;;;4991548;28;20210;-61
2022/01/13 06:54:54;;;;;;;8.07;3.93;;;;;;;;;;4991093;28;20247;-62
2022/01/13 06:57:21;;;;;;;6.00;3.93;;;;;;;;;;4991826;28;20267;-61
2022/01/13 06:59:48;;;;;;;6.10;3.90;;;;;;;;;;4991861;28;20698;-61
2022/01/13 07:02:15;;;;;;;4.27;3.43;;;;;;;;;;4991775;28;20214;-62
2022/01/13 07:04:43;;;;;;;8.57;4.37;;;;;;;;;;4991899;28;20675;-62
2022/01/13 07:07:12;;;;;;;6.30;4.90;;;;;;;;;;4991584;28;20220;-61
2022/01/13 07:09:39;;;;;;;9.37;4.03;;;;;;;;;;4991083;28;20661;-61
2022/01/13 07:12:08;;;;;;;6.70;4.27;;;;;;;;;;4991734;28;20603;-61
2022/01/13 07:14:35;;;;;;;8.90;4.63;;;;;;;;;;4991502;28;20228;-62
2022/01/13 07:17:02;;;;;;;6.13;4.00;;;;;;;;;;4991534;28;20264;-61
2022/01/13 07:19:29;;;;;;;6.37;3.67;;;;;;;;;;4991562;28;20217;-61
2022/01/13 07:21:56;;;;;;;6.23;3.77;;;;;;;;;;4991360;28;20268;-62
2022/01/13 07:24:25;;;;;;;8.73;4.67;;;;;;;;;;4991113;28;20215;-61
2022/01/13 07:26:52;;;;;;;7.33;4.20;;;;;;;;;;4991329;28;20628;-61
2022/01/13 07:29:19;;;;;;;10.03;4.63;;;;;;;;;;4991226;28;20216;-61
2022/01/13 07:31:47;;;;;;;4.03;3.17;;;;;;;;;;4991006;28;20275;-62
2022/01/13 07:34:14;;;;;;;7.63;4.13;;;;;;;;;;4990477;28;20229;-62
2022/01/13 07:36:41;;;;;;;7.33;4.07;;;;;;;;;;4991198;28;20622;-62
2022/01/13 07:39:08;;;;;;;5.87;3.30;;;;;;;;;;4991183;28;20210;-61
2022/01/13 07:41:38;;;;;;;4.53;3.70;;;;;;;;;;4991037;28;20263;-61
2022/01/13 07:44:05;;;;;;;6.53;4.00;;;;;;;;;;4990363;28;20662;-62
2022/01/13 07:46:32;;;;;;;5.13;3.50;;;;;;;;;;4990943;28;20220;-61
2022/01/13 07:48:59;;;;;;;5.03;3.40;;;;;;;;;;4990480;28;20205;-61
2022/01/13 07:51:28;;;;;;;6.40;3.70;;;;;;;;;;4990668;28;20296;-62
2022/01/13 07:53:55;;;;;;;5.23;3.80;;;;;;;;;;4990719;28;20237;-61
2022/01/13 07:56:22;;;;;;;4.20;3.47;;;;;;;;;;4990468;28;20283;-61
2022/01/13 07:58:51;;;;;;;4.33;3.67;;;;;;;;;;4990614;28;20213;-62
2022/01/13 08:01:18;;;;;;;5.23;3.30;;;;;;;;;;4990457;28;20244;-61
2022/01/13 08:03:45;;;;;;;7.30;2.87;;;;;;;;;;4993874;28;20263;-61
2022/01/13 08:06:12;;;;;;;7.10;4.10;;;;;;;;;;4990848;28;20216;-61
2022/01/13 08:08:39;;;;;;;5.60;3.57;;;;;;;;;;4990326;28;20283;-62
2022/01/13 08:11:06;;;;;;;7.57;4.40;;;;;;;;;;4990296;28;20272;-62
2022/01/13 08:13:33;;;;;;;5.77;3.93;;;;;;;;;;4989685;28;20214;-61
2022/01/13 08:16:06;;;;;;;5.93;3.53;;;;;;;;;;4990520;28;20291;-61
2022/01/13 08:21:27;;;;;;;4.20;3.27;;;;;;;;;;4953971;28;20723;-62
2022/01/13 08:23:54;;;;;;;5.23;3.50;;;;;;;;;;4989913;28;20202;-62
2022/01/13 08:26:22;;;;;;;5.83;3.83;;;;;;;;;;4989918;28;20267;-61
2022/01/13 08:28:49;;;;;;;5.30;3.67;;;;;;;;;;4989915;28;20264;-62
2022/01/13 08:31:17;;;;;;;8.83;3.60;;;;;;;;;;4990086;28;20264;-61
2022/01/13 08:33:44;;;;;;;6.17;3.57;;;;;;;;;;4990071;28;20295;-61
2022/01/13 08:36:11;;;;;;;5.60;3.10;;;;;;;;;;4989954;28;20567;-61
2022/01/13 08:38:38;;;;;;;6.60;3.67;;;;;;;;;;4989341;28;20276;-61
2022/01/13 08:41:05;;;;;;;5.83;3.87;;;;;;;;;;4989993;28;20215;-62
2022/01/13 08:43:34;;;;;;;7.23;3.93;;;;;;;;;;4989730;28;20221;-61
2022/01/13 08:46:03;;;;;;;7.33;3.90;;;;;;;;;;4990107;28;20263;-61
2022/01/13 08:48:32;;;;;;;5.83;3.80;;;;;;;;;;4989813;28;20693;-61
2022/01/13 08:50:59;;;;;;;5.57;3.40;;;;;;;;;;4989968;28;20260;-61
2022/01/13 08:53:26;;;;;;;4.03;3.23;;;;;;;;;;4993833;28;20212;-61
2022/01/13 08:55:54;;;;;;;4.17;3.43;;;;;;;;;;5009078;28;20725;-61
2022/01/13 08:58:22;;;;;;;6.57;3.97;;;;;;;;;;5009329;28;20750;-61
2022/01/13 09:00:50;;;;;;;4.60;3.63;;;;;;;;;;5009426;28;20597;-61
2022/01/13 09:03:17;;;;;;;5.43;4.23;;;;;;;;;;5008526;28;20216;-61
2022/01/13 09:05:45;;;;;;;6.83;4.03;;;;;;;;;;5008816;28;20216;-62
2022/01/13 09:08:13;;;;;;;7.60;4.57;;;;;;;;;;5002995;28;20234;-61
2022/01/13 09:10:41;;;;;;;11.07;5.27;;;;;;;;;;4989138;28;20825;-61
2022/01/13 09:13:08;;;;;;;8.90;4.50;;;;;;;;;;4988789;28;20762;-62
2022/01/13 09:15:38;;;;;;;7.50;4.00;;;;;;;;;;4988972;28;20233;-61
2022/01/13 09:18:11;;;;;;;9.10;4.47;;;;;;;;;;4988812;28;20300;-60
2022/01/13 09:20:39;;;;;;;7.90;4.10;;;;;;;;;;4987611;28;20682;-63
2022/01/13 09:23:07;;;;;;;8.83;4.50;;;;;;;;;;4995028;28;20212;-62
2022/01/13 09:25:35;;;;;;;6.87;4.07;;;;;;;;;;5008514;28;20205;-62
2022/01/13 09:28:03;;;;;;;7.93;4.03;;;;;;;;;;4994863;28;20218;-60
2022/01/13 09:30:30;;;;;;;8.17;4.87;;;;;;;;;;4989026;28;20251;-61
2022/01/13 09:32:57;;;;;;;7.57;4.17;;;;;;;;;;4990683;28;20209;-62
2022/01/13 09:35:24;;;;;;;9.93;4.77;;;;;;;;;;4992881;28;20236;-62
2022/01/13 09:37:51;;;;;;;11.13;5.37;;;;;;;;;;4992865;28;20217;-61
2022/01/13 09:40:19;;;;;;;8.30;4.30;;;;;;;;;;4995087;28;20209;-61
2022/01/13 09:42:47;;;;;;;8.67;4.23;;;;;;;;;;4992429;28;20272;-61
2022/01/13 09:45:15;;;;;;;9.40;5.00;;;;;;;;;;4992802;28;20204;-61
2022/01/13 09:47:43;;;;;;;9.17;5.03;;;;;;;;;;4993130;28;20221;-62
2022/01/13 09:50:13;;;;;;;8.60;4.10;;;;;;;;;;4992828;28;20256;-61
2022/01/13 09:52:40;;;;;;;5.97;4.30;;;;;;;;;;4990997;28;20217;-61
2022/01/13 09:55:08;;;;;;;6.60;4.30;;;;;;;;;;4992316;28;20233;-60
2022/01/13 09:57:36;;;;;;;9.10;4.77;;;;;;;;;;4992751;28;20217;-62
2022/01/13 10:00:05;;;;;;;9.17;4.53;;;;;;;;;;4993267;28;20883;-62
2022/01/13 10:02:32;;;;;;;3.40;3.00;;;;;;;;;;4992773;28;20217;-62
2022/01/13 10:04:59;;;;;;;10.57;4.07;;;;;;;;;;4992272;28;20205;-62
2022/01/13 10:07:32;;;;;;;5.87;4.17;;;;;;;;;;4992895;28;20221;-63
2022/01/13 10:10:00;;;;;;;9.50;3.57;;;;;;;;;;4991738;28;20217;-62
2022/01/13 10:12:30;;;;;;;4.70;3.83;;;;;;;;;;4991918;28;20209;-62
2022/01/13 10:17:48;;;;;;;9.00;3.90;;;;;;;;;;4991754;28;20320;-62
2022/01/13 10:20:17;;;;;;;9.50;4.00;;;;;;;;;;4990734;28;20210;-63
2022/01/13 10:22:45;;;;;;;6.07;3.43;;;;;;;;;;4991373;28;20791;-62
2022/01/13 10:25:25;;;;;;;6.70;3.40;;;;;;;;;;4991506;28;20206;-62
2022/01/13 10:27:52;;;;;;;5.97;3.67;;;;;;;;;;4991756;28;20278;-63
2022/01/13 10:30:25;;;;;;;5.73;3.30;;;;;;;;;;4991235;28;20214;-62
2022/01/13 10:32:52;;;;;;;8.83;4.10;;;;;;;;;;4991616;28;20272;-63
2022/01/13 10:35:20;;;;;;;6.13;3.67;;;;;;;;;;4991175;28;20238;-63
2022/01/13 10:37:48;;;;;;;8.33;4.37;;;;;;;;;;4991359;28;20220;-63
2022/01/13 10:40:16;;;;;;;6.80;3.80;;;;;;;;;;4991404;28;20283;-63
2022/01/13 10:45:36;;;;;;;6.60;3.60;;;;;;;;;;4991095;28;20267;-63
2022/01/13 10:48:04;;;;;;;4.73;3.83;;;;;;;;;;4991694;28;20217;-63
2022/01/13 10:50:32;;;;;;;5.57;4.00;;;;;;;;;;4990743;28;20245;-63
2022/01/13 10:53:04;;;;;;;8.17;4.27;;;;;;;;;;4995807;28;20660;-62
2022/01/13 10:55:32;;;;;;;4.13;3.27;;;;;;;;;;5000856;28;20237;-62
2022/01/13 10:57:59;;;;;;;11.63;4.30;;;;;;;;;;4972781;28;20738;-62
2022/01/13 11:00:28;;;;;;;7.77;3.90;;;;;;;;;;4991293;28;20260;-63
2022/01/13 11:03:04;;;;;;;5.03;3.57;;;;;;;;;;4990848;28;20241;-63
2022/01/13 11:05:32;;;;;;;4.37;3.97;;;;;;;;;;4990660;28;20399;-63
2022/01/13 11:07:59;;;;;;;5.10;3.97;;;;;;;;;;4991727;28;20224;-62
2022/01/13 11:10:26;;;;;;;7.07;4.63;;;;;;;;;;4990825;28;20287;-62
2022/01/13 11:12:58;;;;;;;10.77;4.57;;;;;;;;;;4990356;28;20585;-62
2022/01/13 11:15:26;;;;;;;4.10;3.70;;;;;;;;;;4990538;28;20237;-62
2022/01/13 11:17:54;;;;;;;5.93;3.70;;;;;;;;;;4990974;28;20209;-62
2022/01/13 11:20:23;;;;;;;8.83;4.83;;;;;;;;;;4990482;28;20589;-63
2022/01/13 11:22:52;;;;;;;8.83;4.03;;;;;;;;;;4989951;28;20256;-62
2022/01/13 11:25:21;;;;;;;7.77;4.50;;;;;;;;;;4988169;28;20361;-62
2022/01/13 11:27:48;;;;;;;6.37;4.57;;;;;;;;;;5009783;28;20237;-62
2022/01/13 11:30:16;;;;;;;8.20;4.47;;;;;;;;;;5009588;28;20235;-62
2022/01/13 11:32:43;;;;;;;9.40;5.03;;;;;;;;;;5009780;28;20212;-62
2022/01/13 11:35:12;;;;;;;5.53;3.80;;;;;;;;;;4991210;28;20723;-62
2022/01/13 11:37:40;;;;;;;6.43;4.03;;;;;;;;;;4989929;28;20209;-62
2022/01/13 11:40:08;;;;;;;7.30;3.87;;;;;;;;;;4989857;28;20284;-62
2022/01/13 11:42:46;;;;;;;6.13;4.50;;;;;;;;;;4989410;28;20292;-63
2022/01/13 11:45:14;;;;;;;8.40;4.60;;;;;;;;;;4998009;28;20287;-62
2022/01/13 11:47:41;;;;;;;8.70;4.10;;;;;;;;;;5009677;28;20231;-63
2022/01/13 11:50:16;;;;;;;8.63;4.47;;;;;;;;;;4999152;28;20239;-62
2022/01/13 11:52:50;;;;;;;8.77;5.03;;;;;;;;;;4987794;28;20212;-62
2022/01/13 11:55:21;;;;;;;8.23;4.23;;;;;;;;;;4989351;28;20233;-63
2022/01/13 11:57:48;;;;;;;3.13;2.80;;;;;;;;;;4989972;28;20213;-62
2022/01/13 12:00:33;;;;;;;3.90;3.27;;;;;;;;;;4990222;28;20220;-61
2022/01/13 12:03:00;;;;;;;5.37;4.27;;;;;;;;;;4990180;28;20225;-60
2022/01/13 12:05:29;;;;;;;8.33;4.37;;;;;;;;;;4990015;28;20210;-59
2022/01/13 12:07:58;;;;;;;7.97;4.73;;;;;;;;;;4989833;28;20214;-59
2022/01/13 12:10:43;;;;;;;7.43;3.77;;;;;;;;;;4989800;28;21064;-58
2022/01/13 12:13:25;;;;;;;4.33;3.77;;;;;;;;;;4980316;28;20644;-59
2022/01/13 12:15:52;;;;;;;7.07;4.10;;;;;;;;;;4989319;28;20703;-59
2022/01/13 12:18:39;;;;;;;9.77;5.13;;;;;;;;;;4988245;28;20228;-59
2022/01/13 12:21:25;;;;;;;5.20;3.70;;;;;;;;;;4980813;28;20266;-59
2022/01/13 12:23:52;;;;;;;7.53;4.47;;;;;;;;;;4989442;28;20590;-59
2022/01/13 12:26:46;;;;;;;8.80;4.20;;;;;;;;;;4970154;28;20259;-60
2022/01/13 12:29:14;;;;;;;6.23;4.37;;;;;;;;;;4926064;28;20218;-59
2022/01/13 12:31:49;;;;;;;10.47;4.90;;;;;;;;;;4989095;28;20201;-59
2022/01/13 12:34:23;;;;;;;6.27;4.60;;;;;;;;;;4996162;28;20212;-60
2022/01/13 12:36:52;;;;;;;9.97;4.63;;;;;;;;;;4996568;28;20228;-59
2022/01/13 12:39:19;;;;;;;6.10;3.77;;;;;;;;;;5001078;28;20264;-60
2022/01/13 12:41:58;;;;;;;6.73;4.40;;;;;;;;;;4989918;28;20216;-59
2022/01/13 12:47:06;;;;;;;5.23;3.70;;;;;;;;;;4990182;28;20332;-58
2022/01/13 12:49:34;;;;;;;7.23;4.17;;;;;;;;;;4989861;28;20305;-59
2022/01/13 12:52:02;;;;;;;8.23;4.13;;;;;;;;;;4990304;28;20241;-58
2022/01/13 12:54:29;;;;;;;6.57;4.17;;;;;;;;;;4990312;28;20759;-59
2022/01/13 12:56:56;;;;;;;6.20;3.80;;;;;;;;;;4988813;28;20233;-59
2022/01/13 12:59:24;;;;;;;7.97;4.70;;;;;;;;;;4982004;28;20267;-59
2022/01/13 13:01:51;;;;;;;9.43;5.23;;;;;;;;;;4980121;28;20222;-59
2022/01/13 13:04:18;;;;;;;9.20;5.03;;;;;;;;;;4981488;28;20279;-60
2022/01/13 13:06:46;;;;;;;8.10;4.80;;;;;;;;;;4981265;28;20218;-58
2022/01/13 13:09:16;;;;;;;10.67;5.37;;;;;;;;;;4983340;28;20979;-59
2022/01/13 13:11:45;;;;;;;9.30;4.90;;;;;;;;;;4985330;28;20312;-60
2022/01/13 13:14:16;;;;;;;8.00;4.70;;;;;;;;;;4984231;28;20221;-60
2022/01/13 13:16:43;;;;;;;8.27;5.37;;;;;;;;;;4984131;28;20230;-60
2022/01/13 13:19:10;;;;;;;6.43;4.63;;;;;;;;;;4984356;28;20217;-60
2022/01/13 13:21:37;;;;;;;6.73;4.47;;;;;;;;;;4983356;28;20221;-59
2022/01/13 13:24:05;;;;;;;12.27;5.90;;;;;;;;;;4982723;28;20214;-59
2022/01/13 13:26:34;;;;;;;8.33;4.97;;;;;;;;;;4984228;28;20213;-59
2022/01/13 13:29:01;;;;;;;7.93;4.77;;;;;;;;;;4981255;28;20268;-60
2022/01/13 13:31:29;;;;;;;10.07;6.03;;;;;;;;;;4984173;28;21179;-60
2022/01/13 13:33:57;;;;;;;7.97;5.00;;;;;;;;;;4985143;28;20213;-60
2022/01/13 13:36:26;;;;;;;8.60;4.83;;;;;;;;;;4984565;28;20248;-59
2022/01/13 13:38:57;;;;;;;12.63;5.97;;;;;;;;;;4984879;28;20220;-60
2022/01/13 13:41:25;;;;;;;6.60;4.13;;;;;;;;;;4982608;28;20664;-60
2022/01/13 13:43:54;;;;;;;7.97;4.57;;;;;;;;;;4983227;28;20296;-61
2022/01/13 13:46:22;;;;;;;7.07;5.17;;;;;;;;;;4982997;28;20221;-60
2022/01/13 13:48:49;;;;;;;11.47;5.47;;;;;;;;;;4986318;28;20213;-61
2022/01/13 13:51:17;;;;;;;10.43;5.57;;;;;;;;;;4988142;28;20449;-60
2022/01/13 13:54:03;;;;;;;8.43;4.70;;;;;;;;;;4988453;28;20272;-60
2022/01/13 13:59:28;;;;;;;7.03;4.17;;;;;;;;;;4958776;28;20290;-61
2022/01/13 14:01:57;;;;;;;8.20;5.10;;;;;;;;;;4986769;28;20221;-61
2022/01/13 14:04:31;;;;;;;10.40;6.17;;;;;;;;;;4987370;28;20209;-60
2022/01/13 14:06:58;;;;;;;9.50;4.83;;;;;;;;;;4986903;28;20224;-59
2022/01/13 14:09:36;;;;;;;7.17;4.67;;;;;;;;;;4986781;28;20224;-60
2022/01/13 14:12:03;;;;;;;8.57;5.00;;;;;;;;;;4989735;28;20213;-59
2022/01/13 14:14:37;;;;;;;7.87;4.93;;;;;;;;;;4988214;28;20214;-62
2022/01/13 14:17:04;;;;;;;8.67;4.57;;;;;;;;;;4987264;28;20739;-60
2022/01/13 14:19:31;;;;;;;6.03;3.87;;;;;;;;;;4985674;28;20348;-60
2022/01/13 14:21:59;;;;;;;7.67;5.07;;;;;;;;;;4987137;28;20398;-59
2022/01/13 14:24:30;;;;;;;8.77;3.83;;;;;;;;;;4987351;28;20245;-60
2022/01/13 14:27:05;;;;;;;9.53;5.10;;;;;;;;;;4987519;28;20214;-60
2022/01/13 14:29:32;;;;;;;11.30;4.73;;;;;;;;;;4987018;28;20761;-59
2022/01/13 14:34:57;;;;;;;5.10;3.60;;;;;;;;;;5067271;28;20281;-61
2022/01/13 14:37:25;;;;;;;6.53;4.53;;;;;;;;;;5060693;28;20240;-61
2022/01/13 14:40:05;;;;;;;7.07;3.80;;;;;;;;;;5052157;28;20205;-62
2022/01/13 14:42:32;;;;;;;7.63;3.90;;;;;;;;;;5042258;28;20216;-61
2022/01/13 14:45:18;;;;;;;7.50;4.90;;;;;;;;;;5053453;28;20215;-62
2022/01/13 14:47:45;;;;;;;6.27;4.00;;;;;;;;;;5041473;28;20211;-61
2022/01/13 14:50:14;;;;;;;5.93;4.07;;;;;;;;;;5037815;28;20333;-62
2022/01/13 14:52:41;;;;;;;7.47;3.73;;;;;;;;;;5037618;28;20211;-64
2022/01/13 14:55:09;;;;;;;7.67;3.83;;;;;;;;;;5040699;28;20261;-62
2022/01/13 14:57:36;;;;;;;9.17;4.20;;;;;;;;;;5040293;28;20261;-62
2022/01/13 15:00:03;;;;;;;6.80;4.43;;;;;;;;;;5040790;28;20213;-62
2022/01/13 15:02:30;;;;;;;5.70;4.23;;;;;;;;;;5040999;28;20273;-62
2022/01/13 15:04:57;;;;;;;4.90;3.50;;;;;;;;;;5040656;28;20212;-62
2022/01/13 15:07:25;;;;;;;5.23;3.23;;;;;;;;;;5040884;28;20219;-62
2022/01/13 15:09:52;;;;;;;6.57;4.07;;;;;;;;;;5040995;28;20216;-62
2022/01/13 15:12:19;;;;;;;6.60;3.87;;;;;;;;;;5041142;28;20212;-62
2022/01/13 15:14:46;;;;;;;6.33;3.97;;;;;;;;;;5040977;28;20262;-62